NDBC will be participating in PACIFEX26, a partner tabletop exercise with the Tsunami Warning Centers (TWCs) scheduled for May 05 at 1600 UTC. To simulate real-time tsunami observations, the exercise may involve activating Deep Ocean Assessment and Reporting of Tsunami (DART) buoys. For more information please see PNS26-39.

Station APXF1 - East Bay, Apalachicola Reserve, FL Image indicating link to RSS feed of recent meteorological observations for station APXF1


Conditions at APXF1 as of
(1:00 pm EDT)
1700 GMT on 05/05/2026:
     

Click on the graph icon in the table below to see a time series plot of the last five days of that observation.

5-day plot - Wind Direction Wind Direction (WDIR): SE ( 130 deg true )
5-day plot - Wind Speed Wind Speed (WSPD): 8.0 kts
5-day plot - Atmospheric Pressure Atmospheric Pressure (PRES):30.03 in
5-day plot - Pressure Tendency Pressure Tendency (PTDY):+0.00 in ( Steady )
5-day plot - Air Temperature Air Temperature (ATMP): 75.4 °F
5-day plot - Dew Point Dew Point (DEWP): 64.8 °F
5-day plot -  Wind Speed, Wind Gust and Atmospheric Pressure Combined plot of Wind Speed, Gust, and Air Pressure
Previous observations
TIME
(EDT)
5-day plot - Wind Direction
WDIR
 
5-day plot - Wind Speed
WSPD
kts
5-day plot - Wind Gust
GST
kts
5-day plot - Wave Height
WVHT
ft
5-day plot - Dominant Wave Period
DPD
sec
5-day plot - Average Wave Period
APD
sec
5-day plot - Mean Wave Direction
MWD
 
5-day plot - Atmospheric Pressure
PRES
in
5-day plot - Pressure Tendency
PTDY
in
5-day plot - Air Temperature
ATMP
°F
5-day plot - Water Temperature
WTMP
°F
5-day plot - Dew Point
DEWP
°F
5-day plot - Salinity
SAL
psu
5-day plot - Visibility
VIS
nmi
5-day plot - Tide (above MLLW)
TIDE
ft
2026-05-05 12:45 pmESE 8.0-----30.03- 75.4- 64.8---
2026-05-05 12:30 pmESE 8.0-----30.03- 74.8- 64.2---
2026-05-05 12:15 pm SE 7.0-----30.03- 75.4- 63.9---
2026-05-05 12:00 pm SE 8.0-----30.03+0.00 75.2- 63.3---
2026-05-05 11:45 amESE 8.9-----30.03- 75.0- 62.8---
2026-05-05 11:30 amESE 8.0-----30.03- 75.0- 61.9---
2026-05-05 11:15 am SE 7.0-----30.03- 75.0- 61.0---
2026-05-05 11:00 am SE 7.0-----30.03+0.00 74.7- 60.6---
2026-05-05 10:45 am SE 7.0-----30.03- 74.1- 60.1---
2026-05-05 10:30 amESE 7.0-----30.03- 73.4- 59.4---
2026-05-05 10:15 am E 6.0-----30.03- 73.0- 59.5---
2026-05-05 10:00 am E 5.1-----30.03+0.03 72.0- 59.7---
2026-05-05 09:45 am E 4.1-----30.03- 70.5- 59.2---
2026-05-05 09:30 amENE 5.1-----30.03- 69.3- 58.5---
2026-05-05 09:15 amENE 5.1-----30.03- 67.5- 57.6---
2026-05-05 09:00 amENE 5.1-----30.03+0.03 65.8- 58.3---
2026-05-05 08:45 am NE 4.1-----30.03- 64.6- 57.7---
2026-05-05 08:30 am NE 4.1-----30.03- 63.3- 57.2---
2026-05-05 08:15 amENE 4.1-----30.03- 61.9- 57.0---
2026-05-05 08:00 amENE 2.9-----30.03+0.06 61.2- 57.4---
2026-05-05 07:45 am E 1.0-----30.00- 59.7- 56.5---
2026-05-05 07:30 amESE 1.9-----30.00- 57.6- 54.7---
2026-05-05 07:15 am E 1.9-----30.00- 57.4- 54.5---
2026-05-05 07:00 am E 1.9-----30.00+0.00 57.2- 54.3---
2026-05-05 06:45 amENE 2.9-----30.00- 58.1- 55.6---
2026-05-05 06:30 am E 2.9-----30.00- 58.5- 55.6---
2026-05-05 06:15 am NE 6.0-----30.00- 59.5- 57.0---
2026-05-05 06:00 amENE 2.9-----30.00+0.00 58.5- 56.5---
2026-05-05 05:45 am E 2.9-----29.97- 57.9- 55.6---
2026-05-05 05:30 amENE 1.9-----29.97- 58.5- 56.8---
2026-05-05 05:15 am- 0.0-----29.97- 56.7- 55.2---
2026-05-05 05:00 amESE 1.9-----29.97-0.03 54.7- 53.1---
2026-05-05 04:45 amESE 1.9-----29.97- 54.3- 52.7---
2026-05-05 04:30 am SE 1.9-----29.97- 54.7- 53.1---
2026-05-05 04:15 am SE 1.9-----30.00- 53.8- 52.2---
2026-05-05 04:00 am SE 2.9-----30.00+0.00 54.0- 52.3---
2026-05-05 03:45 am SE 2.9-----30.00- 54.9- 53.2---
2026-05-05 03:30 amESE 1.0-----30.00- 56.7- 55.0---
2026-05-05 03:15 amESE 1.9-----30.00- 56.5- 54.9---
2026-05-05 03:00 am SE 1.9-----30.00+0.00 56.7- 55.0---
2026-05-05 02:45 am- 0.0-----30.00- 56.3- 54.7---
2026-05-05 02:30 am SE 2.9-----29.97- 56.1- 54.5---
2026-05-05 02:15 am SE 1.0-----30.00- 57.2- 55.6---
2026-05-05 02:00 amESE 1.9-----30.00-0.03 56.5- 54.9---
2026-05-05 01:45 am SE 1.9-----30.00- 57.9- 55.9---
2026-05-05 01:30 amESE 1.0-----30.00- 58.6- 56.7---
2026-05-05 01:15 am SE 1.0-----30.00- 58.5- 56.5---
2026-05-05 01:00 amESE 1.9-----30.00+0.00 58.3- 55.9---
2026-05-05 12:45 amESE 1.9-----30.03- 58.5- 56.1---
2026-05-05 12:30 am SE 1.0-----30.03- 58.5- 55.9---
2026-05-05 12:15 am S 1.0-----30.03- 59.5- 56.7---
2026-05-05 12:00 amSSE 1.9-----30.00+0.00 59.5- 56.1---
2026-05-04 11:45 pmSSE 1.0-----30.03- 59.9- 55.8---
2026-05-04 11:30 pm S 1.0-----30.03- 63.0- 57.2---
2026-05-04 11:15 pm W 1.9-----30.03- 66.6- 59.5---
2026-05-04 11:00 pmWNW 5.1-----30.03+0.03 68.5- 60.4---
2026-05-04 10:45 pm NW 4.1-----30.03- 69.3- 60.8---
2026-05-04 10:30 pmWNW 5.1-----30.03- 68.9- 60.4---
2026-05-04 10:15 pm W 1.9-----30.03- 65.7- 58.1---
2026-05-04 10:00 pmWSW 1.9-----30.00+0.00 68.4- 58.8---
2026-05-04 09:45 pmWNW 5.1-----30.00- 70.9- 60.4---
2026-05-04 09:30 pm W 6.0-----30.00- 71.2- 59.9---
2026-05-04 09:15 pm W 4.1-----30.00- 69.1- 58.3---
2026-05-04 09:00 pm S 1.0-----30.00+0.00 68.4- 56.8---
2026-05-04 08:45 pmSSW 1.9-----30.00- 70.2- 56.8---
2026-05-04 08:30 pm SW 1.9-----30.00- 70.5- 56.3---
2026-05-04 08:15 pmSSW 1.9-----30.00- 71.1- 55.8---
2026-05-04 08:00 pmSSW 1.9-----30.00-0.03 71.8- 56.1---
2026-05-04 07:45 pm SW 1.9-----30.00- 72.3- 55.6---
2026-05-04 07:30 pm S 2.9-----30.00- 72.7- 55.4---
2026-05-04 07:15 pm S 2.9-----30.00- 73.0- 56.3---
2026-05-04 07:00 pm S 4.1-----30.00-0.03 73.2- 54.9---
2026-05-04 06:45 pm S 4.1-----30.00- 73.4- 54.5---
2026-05-04 06:30 pm S 4.1-----30.00- 73.9- 54.0---
2026-05-04 06:15 pm S 4.1-----30.00- 73.9- 53.4---
2026-05-04 06:00 pmSSE 5.1-----30.00-0.06 73.9- 53.4---
2026-05-04 05:45 pm S 5.1-----30.00- 73.8- 53.2---
2026-05-04 05:30 pm S 5.1-----30.00- 74.1- 53.6---
2026-05-04 05:15 pm S 5.1-----30.00- 73.9- 52.9---
2026-05-04 05:00 pmSSE 6.0-----30.03-0.03 73.9- 52.3---
2026-05-04 04:45 pm SE 7.0-----30.03- 74.3- 53.2---
2026-05-04 04:30 pmSSE 7.0-----30.03- 74.1- 52.5---
2026-05-04 04:15 pm SE 8.0-----30.03- 73.9- 51.6---
2026-05-04 04:00 pmSSE 6.0-----30.03-0.06 74.3- 51.4---
2026-05-04 03:45 pmSSE 7.0-----30.03- 74.1- 50.7---
2026-05-04 03:30 pmSSE 6.0-----30.03- 74.3- 49.5---
2026-05-04 03:15 pm SE 6.0-----30.03- 74.3- 49.5---
2026-05-04 03:00 pmSSE 7.0-----30.06-0.03 74.1- 50.0---
2026-05-04 02:45 pmSSE 7.0-----30.06- 73.9- 49.8---
2026-05-04 02:30 pmSSE 6.0-----30.06- 74.1- 50.0---
2026-05-04 02:15 pm SE 8.0-----30.06- 74.1- 50.7---
2026-05-04 02:00 pmSSE 6.0-----30.06-0.03 74.1- 51.3---
2026-05-04 01:45 pmSSE 8.0-----30.06- 73.4- 51.3---
2026-05-04 01:30 pmSSE 7.0-----30.06- 73.6- 52.5---
2026-05-04 01:15 pm SE 8.0-----30.06- 73.6- 52.0---
2026-05-04 01:00 pm SE 8.0-----30.09+0.00 73.9- 49.3---